createdAt,value
2018-09-18T00:00:31.296Z,956.74
2018-09-18T00:01:31.289Z,956.76
2018-09-18T00:02:31.280Z,956.74
2018-09-18T00:03:31.278Z,956.74
2018-09-18T00:04:31.269Z,956.7
2018-09-18T00:05:31.261Z,956.71
2018-09-18T00:06:31.254Z,956.72
2018-09-18T00:07:31.250Z,956.71
2018-09-18T00:08:31.240Z,956.73
2018-09-18T00:09:31.234Z,956.73
2018-09-18T00:10:31.227Z,956.73
2018-09-18T00:11:31.228Z,956.68
2018-09-18T00:12:31.215Z,956.69
2018-09-18T00:13:31.210Z,956.71
2018-09-18T00:14:31.199Z,956.68
2018-09-18T00:15:31.195Z,956.69
2018-09-18T00:16:31.186Z,956.68
2018-09-18T00:17:31.181Z,956.68
2018-09-18T00:18:31.176Z,956.66
2018-09-18T00:19:31.169Z,956.63
2018-09-18T00:20:31.159Z,956.67
2018-09-18T00:21:31.155Z,956.6
2018-09-18T00:22:31.148Z,956.61
2018-09-18T00:23:31.142Z,956.62
2018-09-18T00:24:31.134Z,956.61
2018-09-18T00:25:31.131Z,956.59
2018-09-18T00:26:31.122Z,956.6
2018-09-18T00:27:31.114Z,956.58
2018-09-18T00:28:31.109Z,956.55
2018-09-18T00:29:31.103Z,956.56
2018-09-18T00:30:31.095Z,956.6
2018-09-18T00:31:31.089Z,956.57
2018-09-18T00:32:31.079Z,956.56
2018-09-18T00:33:31.074Z,956.52
2018-09-18T00:34:31.072Z,956.52
2018-09-18T00:35:31.061Z,956.57
2018-09-18T00:36:31.054Z,956.53
2018-09-18T00:37:31.048Z,956.52
2018-09-18T00:38:31.041Z,956.53
2018-09-18T00:39:31.033Z,956.53
2018-09-18T00:40:31.031Z,956.51
2018-09-18T00:41:31.021Z,956.5
2018-09-18T00:42:31.014Z,956.49
2018-09-18T00:43:31.006Z,956.48
2018-09-18T00:44:30.998Z,956.45
2018-09-18T00:45:30.994Z,956.46
2018-09-18T00:46:30.984Z,956.44
2018-09-18T00:47:30.979Z,956.43
2018-09-18T00:48:30.977Z,956.45
2018-09-18T00:49:30.969Z,956.42
2018-09-18T00:50:30.957Z,956.44
2018-09-18T00:51:30.955Z,956.43
2018-09-18T00:52:30.949Z,956.41
2018-09-18T00:53:30.937Z,956.42
2018-09-18T00:54:30.932Z,956.42
2018-09-18T00:55:30.923Z,956.4
2018-09-18T00:56:30.917Z,956.38
2018-09-18T00:57:30.912Z,956.38
2018-09-18T00:58:30.904Z,956.38
2018-09-18T00:59:30.901Z,956.4
2018-09-18T01:00:30.888Z,956.36
2018-09-18T01:01:30.883Z,956.39
2018-09-18T01:02:30.876Z,956.37
2018-09-18T01:03:30.870Z,956.38
2018-09-18T01:04:30.868Z,956.41
2018-09-18T01:05:30.853Z,956.41
2018-09-18T01:06:30.849Z,956.45
2018-09-18T01:07:30.842Z,956.41
2018-09-18T01:08:30.834Z,956.41
2018-09-18T01:09:30.828Z,956.41
2018-09-18T01:10:30.822Z,956.4
2018-09-18T01:11:30.813Z,956.42
2018-09-18T01:12:30.806Z,956.37
2018-09-18T01:13:30.801Z,956.36
2018-09-18T01:14:30.793Z,956.38
2018-09-18T01:15:30.786Z,956.37
2018-09-18T01:16:30.782Z,956.33
2018-09-18T01:17:30.771Z,956.31
2018-09-18T01:18:30.767Z,956.33
2018-09-18T01:19:30.758Z,956.32
2018-09-18T01:20:30.751Z,956.3
2018-09-18T01:21:30.746Z,956.29
2018-09-18T01:22:30.736Z,956.29
2018-09-18T01:23:30.730Z,956.26
2018-09-18T01:24:30.724Z,956.3
2018-09-18T01:25:30.719Z,956.25
2018-09-18T01:26:30.712Z,956.28
2018-09-18T01:27:30.704Z,956.31
2018-09-18T01:28:30.694Z,956.29
2018-09-18T01:29:30.690Z,956.3
2018-09-18T01:30:30.683Z,956.29
2018-09-18T01:31:30.676Z,956.28
2018-09-18T01:32:30.671Z,956.25
2018-09-18T01:33:30.662Z,956.29
2018-09-18T01:34:30.658Z,956.28
2018-09-18T01:35:30.649Z,956.27
2018-09-18T01:36:30.640Z,956.25
2018-09-18T01:37:30.635Z,956.24
2018-09-18T01:38:30.628Z,956.26
2018-09-18T01:39:30.628Z,956.28
2018-09-18T01:40:30.614Z,956.25
2018-09-18T01:41:30.608Z,956.26
2018-09-18T01:42:30.651Z,956.26
2018-09-18T01:43:30.594Z,956.23
2018-09-18T01:44:30.584Z,956.21
2018-09-18T01:45:30.579Z,956.25
2018-09-18T01:46:30.573Z,956.21
2018-09-18T01:47:30.566Z,956.21
2018-09-18T01:48:30.558Z,956.24
2018-09-18T01:49:30.551Z,956.2
2018-09-18T01:50:30.544Z,956.2
2018-09-18T01:51:30.535Z,956.2
2018-09-18T01:52:30.531Z,956.2
2018-09-18T01:53:30.524Z,956.2
2018-09-18T01:54:30.518Z,956.26
2018-09-18T01:55:30.509Z,956.26
2018-09-18T01:56:30.503Z,956.27
2018-09-18T01:57:30.494Z,956.26
2018-09-18T01:58:30.490Z,956.29
2018-09-18T01:59:30.483Z,956.29
2018-09-18T02:00:30.474Z,956.27
2018-09-18T02:01:30.468Z,956.29
2018-09-18T02:02:30.461Z,956.3
2018-09-18T02:03:30.458Z,956.29
2018-09-18T02:04:30.446Z,956.3
2018-09-18T02:05:30.442Z,956.26
2018-09-18T02:06:30.433Z,956.27
2018-09-18T02:07:30.427Z,956.29
2018-09-18T02:08:30.421Z,956.3
2018-09-18T02:09:30.415Z,956.29
2018-09-18T02:10:30.406Z,956.31
2018-09-18T02:11:30.400Z,956.29
2018-09-18T02:12:30.394Z,956.27
2018-09-18T02:13:30.385Z,956.26
2018-09-18T02:14:30.378Z,956.25
2018-09-18T02:15:30.373Z,956.21
2018-09-18T02:16:30.368Z,956.23
2018-09-18T02:17:30.401Z,956.24
2018-09-18T02:18:30.349Z,956.21
2018-09-18T02:19:30.345Z,956.21
2018-09-18T02:20:30.337Z,956.17
2018-09-18T02:21:30.328Z,956.15
2018-09-18T02:22:30.322Z,956.16
2018-09-18T02:23:30.315Z,956.13
2018-09-18T02:24:30.310Z,956.14
2018-09-18T02:25:30.313Z,956.16
2018-09-18T02:26:30.295Z,956.14
2018-09-18T02:27:30.287Z,956.16
2018-09-18T02:28:30.282Z,956.13
2018-09-18T02:29:30.276Z,956.17
2018-09-18T02:30:30.270Z,956.16
2018-09-18T02:31:30.262Z,956.13
2018-09-18T02:32:30.253Z,956.12
2018-09-18T02:33:30.251Z,956.16
2018-09-18T02:34:30.240Z,956.14
2018-09-18T02:35:30.231Z,956.18
2018-09-18T02:36:30.225Z,956.17
2018-09-18T02:37:30.217Z,956.15
2018-09-18T02:38:30.212Z,956.17
2018-09-18T02:39:30.205Z,956.2
2018-09-18T02:40:30.198Z,956.15
2018-09-18T02:41:30.190Z,956.2
2018-09-18T02:42:30.184Z,956.16
2018-09-18T02:43:30.176Z,956.18
2018-09-18T02:44:30.169Z,956.18
2018-09-18T02:45:30.163Z,956.16
2018-09-18T02:46:30.156Z,956.16
2018-09-18T02:47:30.149Z,956.17
2018-09-18T02:48:30.143Z,956.17
2018-09-18T02:49:30.136Z,956.19
2018-09-18T02:50:30.128Z,956.22
2018-09-18T02:51:30.120Z,956.24
2018-09-18T02:52:30.115Z,956.26
2018-09-18T02:53:30.108Z,956.27
2018-09-18T02:54:30.102Z,956.27
2018-09-18T02:55:30.093Z,956.27
2018-09-18T02:56:30.087Z,956.3
2018-09-18T02:57:30.079Z,956.28
2018-09-18T02:58:30.070Z,956.32
2018-09-18T02:59:30.064Z,956.29
2018-09-18T03:00:30.058Z,956.26
2018-09-18T03:01:30.053Z,956.29
2018-09-18T03:02:30.048Z,956.3
2018-09-18T03:03:30.038Z,956.24
2018-09-18T03:04:30.031Z,956.31
2018-09-18T03:05:30.024Z,956.29
2018-09-18T03:06:30.023Z,956.28
2018-09-18T03:07:30.011Z,956.31
2018-09-18T03:08:30.002Z,956.29
2018-09-18T03:09:29.996Z,956.32
2018-09-18T03:10:29.989Z,956.29
2018-09-18T03:11:30.012Z,956.27
2018-09-18T03:12:29.974Z,956.3
2018-09-18T03:13:29.967Z,956.3
2018-09-18T03:14:29.962Z,956.29
2018-09-18T03:15:29.955Z,956.3
2018-09-18T03:16:29.947Z,956.29
2018-09-18T03:17:29.939Z,956.33
2018-09-18T03:18:29.934Z,956.29
2018-09-18T03:19:29.927Z,956.25
2018-09-18T03:20:29.922Z,956.31
2018-09-18T03:21:29.914Z,956.28
2018-09-18T03:22:29.905Z,956.24
2018-09-18T03:23:29.898Z,956.26
2018-09-18T03:24:29.893Z,956.26
2018-09-18T03:25:29.887Z,956.26
2018-09-18T03:26:29.879Z,956.21
2018-09-18T03:27:29.938Z,956.2
2018-09-18T03:28:29.868Z,956.21
2018-09-18T03:29:29.857Z,956.19
2018-09-18T03:30:29.853Z,956.2
2018-09-18T03:31:29.844Z,956.16
2018-09-18T03:32:29.837Z,956.19
2018-09-18T03:33:29.830Z,956.21
2018-09-18T03:34:29.822Z,956.21
2018-09-18T03:35:29.839Z,956.17
2018-09-18T03:36:29.809Z,956.18
2018-09-18T03:37:29.801Z,956.21
2018-09-18T03:38:29.793Z,956.22
2018-09-18T03:39:29.788Z,956.23
2018-09-18T03:40:29.781Z,956.17
2018-09-18T03:41:29.776Z,956.19
2018-09-18T03:42:29.770Z,956.2
2018-09-18T03:43:29.759Z,956.22
2018-09-18T03:44:29.755Z,956.2
2018-09-18T03:45:29.747Z,956.18
2018-09-18T03:46:29.738Z,956.15
2018-09-18T03:47:29.730Z,956.17
2018-09-18T03:48:29.727Z,956.18
2018-09-18T03:49:29.717Z,956.18
2018-09-18T03:50:29.712Z,956.17
2018-09-18T03:51:29.705Z,956.12
2018-09-18T03:52:29.700Z,956.17
2018-09-18T03:53:29.690Z,956.11
2018-09-18T03:54:29.684Z,956.15
2018-09-18T03:55:29.678Z,956.13
2018-09-18T03:56:29.669Z,956.17
2018-09-18T03:57:29.663Z,956.13
2018-09-18T03:58:29.657Z,956.15
2018-09-18T03:59:29.676Z,956.12
2018-09-18T04:00:29.644Z,956.11
2018-09-18T04:01:29.635Z,956.07
2018-09-18T04:02:29.627Z,956.07
2018-09-18T04:03:29.624Z,956.08
2018-09-18T04:04:29.615Z,956.07
2018-09-18T04:05:29.608Z,956.08
2018-09-18T04:06:29.602Z,956.11
2018-09-18T04:07:29.593Z,956.05
2018-09-18T04:08:29.587Z,956.05
2018-09-18T04:09:29.579Z,956.03
2018-09-18T04:10:29.575Z,956.04
2018-09-18T04:11:29.565Z,956.01
2018-09-18T04:12:29.558Z,955.99
2018-09-18T04:13:29.555Z,956.02
2018-09-18T04:14:29.545Z,956.06
2018-09-18T04:15:29.542Z,956.03
2018-09-18T04:16:29.530Z,956.02
2018-09-18T04:17:29.609Z,956.01
2018-09-18T04:18:29.516Z,956.02
2018-09-18T04:19:29.510Z,956.05
2018-09-18T04:20:29.504Z,956.01
2018-09-18T04:21:29.497Z,956
2018-09-18T04:22:29.490Z,955.99
2018-09-18T04:23:29.490Z,956.02
2018-09-18T04:24:29.478Z,956.01
2018-09-18T04:25:29.467Z,955.98
2018-09-18T04:26:29.464Z,956.02
2018-09-18T04:27:29.457Z,956.01
2018-09-18T04:28:29.449Z,955.97
2018-09-18T04:29:29.440Z,955.97
2018-09-18T04:30:29.436Z,955.95
2018-09-18T04:31:29.428Z,955.97
2018-09-18T04:32:29.419Z,955.97
2018-09-18T04:33:29.414Z,955.99
2018-09-18T04:34:29.407Z,956.02
2018-09-18T04:35:29.402Z,956.01
2018-09-18T04:36:29.394Z,955.99
2018-09-18T04:37:29.388Z,956
2018-09-18T04:38:29.380Z,955.99
2018-09-18T04:39:29.377Z,956
2018-09-18T04:40:29.367Z,955.99
2018-09-18T04:41:29.357Z,955.98
2018-09-18T04:42:29.354Z,956.02
2018-09-18T04:43:29.345Z,956.01
2018-09-18T04:44:29.337Z,956.03
2018-09-18T04:45:29.330Z,956
2018-09-18T04:46:29.324Z,956.02
2018-09-18T04:47:29.317Z,956.01
2018-09-18T04:48:29.309Z,956.01
2018-09-18T04:49:29.303Z,956
2018-09-18T04:50:29.294Z,956.04
2018-09-18T04:51:29.287Z,956.04
2018-09-18T04:52:29.291Z,956.05
2018-09-18T04:53:29.276Z,956.09
2018-09-18T04:54:29.267Z,956.1
2018-09-18T04:55:29.259Z,956.1
2018-09-18T04:56:29.252Z,956.11
2018-09-18T04:57:29.245Z,956.09
2018-09-18T04:58:29.243Z,956.1
2018-09-18T04:59:29.231Z,956.11
2018-09-18T05:00:29.226Z,956.09
2018-09-18T05:01:29.217Z,956.17
2018-09-18T05:02:29.211Z,956.11
2018-09-18T05:03:29.203Z,956.14
2018-09-18T05:04:29.197Z,956.16
2018-09-18T05:05:29.189Z,956.14
2018-09-18T05:06:29.183Z,956.14
2018-09-18T05:07:29.176Z,956.14
2018-09-18T05:08:29.168Z,956.19
2018-09-18T05:09:29.218Z,956.13
2018-09-18T05:10:29.154Z,956.15
2018-09-18T05:11:29.149Z,956.18
2018-09-18T05:12:29.140Z,956.17
2018-09-18T05:13:29.134Z,956.19
2018-09-18T05:14:29.125Z,956.15
2018-09-18T05:15:29.119Z,956.18
2018-09-18T05:16:29.109Z,956.17
2018-09-18T05:17:29.104Z,956.21
2018-09-18T05:18:29.101Z,956.18
2018-09-18T05:19:29.090Z,956.16
2018-09-18T05:20:29.081Z,956.15
2018-09-18T05:21:29.075Z,956.16
2018-09-18T05:22:29.070Z,956.12
2018-09-18T05:23:29.061Z,956.14
2018-09-18T05:24:29.054Z,956.14
2018-09-18T05:25:29.064Z,956.14
2018-09-18T05:26:29.040Z,956.16
2018-09-18T05:27:29.033Z,956.14
2018-09-18T05:28:29.026Z,956.15
2018-09-18T05:29:29.020Z,956.16
2018-09-18T05:30:29.015Z,956.14
2018-09-18T05:31:29.005Z,956.18
2018-09-18T05:32:28.999Z,956.19
2018-09-18T05:33:28.994Z,956.2
2018-09-18T05:34:28.984Z,956.22
2018-09-18T05:35:28.977Z,956.22
2018-09-18T05:36:28.973Z,956.25
2018-09-18T05:37:28.965Z,956.2
2018-09-18T05:38:28.955Z,956.24
2018-09-18T05:39:28.949Z,956.21
2018-09-18T05:40:29.092Z,956.24
2018-09-18T05:41:28.939Z,956.22
2018-09-18T05:42:28.930Z,956.21
2018-09-18T05:43:28.921Z,956.19
2018-09-18T05:44:28.917Z,956.22
2018-09-18T05:45:28.909Z,956.17
2018-09-18T05:46:28.905Z,956.23
2018-09-18T05:47:28.896Z,956.19
2018-09-18T05:48:28.889Z,956.17
2018-09-18T05:49:28.881Z,956.16
2018-09-18T05:50:28.874Z,956.2
2018-09-18T05:51:28.867Z,956.2
2018-09-18T05:52:28.863Z,956.18
2018-09-18T05:53:28.853Z,956.2
2018-09-18T05:54:28.848Z,956.17
2018-09-18T05:55:28.842Z,956.19
2018-09-18T05:56:28.835Z,956.21
2018-09-18T05:57:28.829Z,956.18
2018-09-18T05:58:28.822Z,956.2
2018-09-18T05:59:28.816Z,956.19
2018-09-18T06:00:28.810Z,956.17
2018-09-18T06:01:28.802Z,956.18
2018-09-18T06:02:28.797Z,956.18
2018-09-18T06:03:28.790Z,956.18
2018-09-18T06:04:28.784Z,956.2
2018-09-18T06:05:28.776Z,956.2
2018-09-18T06:06:28.770Z,956.21
2018-09-18T06:07:28.764Z,956.21
2018-09-18T06:08:28.758Z,956.19
2018-09-18T06:09:28.754Z,956.25
2018-09-18T06:10:28.744Z,956.24
2018-09-18T06:11:28.739Z,956.24
2018-09-18T06:12:28.750Z,956.26
2018-09-18T06:13:28.729Z,956.29
2018-09-18T06:14:28.720Z,956.3
2018-09-18T06:15:28.713Z,956.27
2018-09-18T06:16:28.708Z,956.3
2018-09-18T06:17:28.703Z,956.32
2018-09-18T06:18:28.697Z,956.28
2018-09-18T06:19:28.697Z,956.29
2018-09-18T06:20:28.683Z,956.29
2018-09-18T06:21:28.678Z,956.29
2018-09-18T06:22:28.673Z,956.26
2018-09-18T06:23:28.665Z,956.31
2018-09-18T06:24:28.659Z,956.27
2018-09-18T06:25:28.654Z,956.27
2018-09-18T06:26:28.647Z,956.28
2018-09-18T06:27:28.643Z,956.32
2018-09-18T06:28:28.637Z,956.33
2018-09-18T06:29:28.629Z,956.28
2018-09-18T06:30:28.624Z,956.36
2018-09-18T06:31:28.619Z,956.3
2018-09-18T06:32:28.616Z,956.24
2018-09-18T06:33:28.608Z,956.3
2018-09-18T06:34:28.606Z,956.3
2018-09-18T06:35:28.598Z,956.32
2018-09-18T06:36:28.592Z,956.27
2018-09-18T06:37:28.586Z,956.33
2018-09-18T06:38:28.581Z,956.31
2018-09-18T06:39:28.577Z,956.31
2018-09-18T06:40:28.572Z,956.32
2018-09-18T06:41:28.564Z,956.32
2018-09-18T06:42:28.667Z,956.33
2018-09-18T06:43:28.557Z,956.36
2018-09-18T06:44:28.550Z,956.33
2018-09-18T06:45:28.545Z,956.27
2018-09-18T06:46:28.539Z,956.31
2018-09-18T06:47:28.534Z,956.36
2018-09-18T06:48:28.529Z,956.32
2018-09-18T06:49:28.527Z,956.33
2018-09-18T06:50:28.521Z,956.31
2018-09-18T06:51:28.515Z,956.32
2018-09-18T06:52:28.508Z,956.34
2018-09-18T06:53:28.505Z,956.38
2018-09-18T06:54:28.518Z,956.36
2018-09-18T06:55:28.495Z,956.33
2018-09-18T06:56:28.491Z,956.43
2018-09-18T06:57:28.491Z,956.38
2018-09-18T06:58:28.480Z,956.35
2018-09-18T06:59:28.475Z,956.34
2018-09-18T07:00:28.475Z,956.36
2018-09-18T07:01:28.467Z,956.33
2018-09-18T07:02:28.463Z,956.35
2018-09-18T07:03:28.456Z,956.31
2018-09-18T07:04:28.451Z,956.33
2018-09-18T07:05:28.450Z,956.34
2018-09-18T07:06:28.441Z,956.32
2018-09-18T07:07:28.438Z,956.34
2018-09-18T07:08:28.432Z,956.32
2018-09-18T07:09:28.428Z,956.4
2018-09-18T07:10:28.423Z,956.35
2018-09-18T07:11:28.419Z,956.38
2018-09-18T07:12:28.422Z,956.42
2018-09-18T07:13:28.409Z,956.39
2018-09-18T07:14:28.407Z,956.4
2018-09-18T07:15:28.402Z,956.44
2018-09-18T07:16:28.398Z,956.43
2018-09-18T07:17:28.393Z,956.46
2018-09-18T07:18:28.389Z,956.41
2018-09-18T07:19:28.387Z,956.42
2018-09-18T07:20:28.379Z,956.44
2018-09-18T07:21:28.376Z,956.43
2018-09-18T07:22:28.378Z,956.42
2018-09-18T07:23:28.368Z,956.41
2018-09-18T07:24:28.362Z,956.37
2018-09-18T07:25:28.361Z,956.36
2018-09-18T07:26:28.357Z,956.33
2018-09-18T07:27:28.354Z,956.33
2018-09-18T07:28:28.347Z,956.31
2018-09-18T07:29:28.390Z,956.3
2018-09-18T07:30:28.341Z,956.31
2018-09-18T07:31:28.336Z,956.27
2018-09-18T07:32:28.332Z,956.27
2018-09-18T07:33:28.329Z,956.3
2018-09-18T07:34:28.326Z,956.24
2018-09-18T07:35:28.321Z,956.3
2018-09-18T07:36:28.319Z,956.28
2018-09-18T07:37:28.315Z,956.27
2018-09-18T07:38:28.314Z,956.3
2018-09-18T07:39:28.309Z,956.34
2018-09-18T07:40:28.306Z,956.29
2018-09-18T07:41:28.302Z,956.28
2018-09-18T07:42:28.298Z,956.3
2018-09-18T07:43:28.297Z,956.33
2018-09-18T07:44:28.293Z,956.35
2018-09-18T07:45:28.290Z,956.31
2018-09-18T07:46:28.287Z,956.32
2018-09-18T07:47:28.283Z,956.36
2018-09-18T07:48:28.281Z,956.37
2018-09-18T07:49:28.278Z,956.43
2018-09-18T07:50:28.278Z,956.39
2018-09-18T07:51:28.272Z,956.37
2018-09-18T07:52:28.275Z,956.43
2018-09-18T07:53:28.271Z,956.43
2018-09-18T07:54:28.266Z,956.48
2018-09-18T07:55:28.264Z,956.48
2018-09-18T07:56:28.262Z,956.46
2018-09-18T07:57:28.259Z,956.5
2018-09-18T07:58:28.255Z,956.45
2018-09-18T07:59:28.255Z,956.42
2018-09-18T08:00:28.254Z,956.43
2018-09-18T08:01:28.250Z,956.44
2018-09-18T08:02:28.248Z,956.42
2018-09-18T08:03:28.249Z,956.47
2018-09-18T08:04:28.246Z,956.42
2018-09-18T08:05:28.242Z,956.42
2018-09-18T08:06:28.242Z,956.46
2018-09-18T08:07:28.240Z,956.43
2018-09-18T08:08:28.240Z,956.39
2018-09-18T08:09:28.236Z,956.31
2018-09-18T08:10:28.235Z,956.31
2018-09-18T08:11:28.234Z,956.35
2018-09-18T08:12:28.233Z,956.32
2018-09-18T08:13:28.230Z,956.31
2018-09-18T08:14:28.230Z,956.33
2018-09-18T08:15:28.228Z,956.32
2018-09-18T08:16:28.227Z,956.38
2018-09-18T08:17:28.226Z,956.37
2018-09-18T08:18:28.226Z,956.4
2018-09-18T08:19:28.393Z,956.39
2018-09-18T08:20:28.224Z,956.42
2018-09-18T08:21:28.222Z,956.4
2018-09-18T08:22:28.220Z,956.44
2018-09-18T08:23:28.225Z,956.38
2018-09-18T08:24:28.219Z,956.41
2018-09-18T08:25:28.283Z,956.43
2018-09-18T08:26:28.218Z,956.39
2018-09-18T08:27:28.216Z,956.44
2018-09-18T08:28:28.218Z,956.37
2018-09-18T08:29:28.218Z,956.38
2018-09-18T08:30:28.217Z,956.41
2018-09-18T08:31:28.216Z,956.44
2018-09-18T08:32:28.220Z,956.43
2018-09-18T08:33:28.215Z,956.4
2018-09-18T08:34:28.222Z,956.41
2018-09-18T08:35:28.214Z,956.4
2018-09-18T08:36:28.212Z,956.43
2018-09-18T08:37:28.212Z,956.42
2018-09-18T08:38:28.216Z,956.43
2018-09-18T08:39:28.214Z,956.45
2018-09-18T08:40:28.211Z,956.43
2018-09-18T08:41:28.222Z,956.44
2018-09-18T08:42:28.212Z,956.41
2018-09-18T08:43:28.211Z,956.4
2018-09-18T08:44:28.211Z,956.41
2018-09-18T08:45:28.217Z,956.38
2018-09-18T08:46:28.211Z,956.42
2018-09-18T08:47:28.212Z,956.46
2018-09-18T08:48:28.239Z,956.4
2018-09-18T08:49:28.211Z,956.44
2018-09-18T08:50:28.244Z,956.39
2018-09-18T08:51:28.220Z,956.41
2018-09-18T08:52:28.226Z,956.4
2018-09-18T08:53:28.212Z,956.41
2018-09-18T08:54:28.275Z,956.38
2018-09-18T08:55:28.211Z,956.37
2018-09-18T08:56:28.218Z,956.39
2018-09-18T08:57:28.211Z,956.41
2018-09-18T08:58:28.211Z,956.45
2018-09-18T08:59:28.211Z,956.46
2018-09-18T09:00:28.211Z,956.4
2018-09-18T09:01:28.219Z,956.45
2018-09-18T09:02:28.213Z,956.39
2018-09-18T09:03:28.210Z,956.38
2018-09-18T09:04:28.283Z,956.39
2018-09-18T09:05:28.213Z,956.4
2018-09-18T09:06:28.277Z,956.38
2018-09-18T09:07:28.264Z,956.37
2018-09-18T09:08:28.281Z,956.41
2018-09-18T09:09:28.299Z,956.4
2018-09-18T09:10:28.255Z,956.36
2018-09-18T09:11:28.247Z,956.36
2018-09-18T09:12:28.233Z,956.4
2018-09-18T09:13:28.216Z,956.39
2018-09-18T09:14:28.413Z,956.36
2018-09-18T09:15:28.330Z,956.41
2018-09-18T09:16:28.216Z,956.41
2018-09-18T09:17:28.245Z,956.32
2018-09-18T09:18:28.349Z,956.35
2018-09-18T09:19:28.250Z,956.4
2018-09-18T09:20:28.227Z,956.38
2018-09-18T09:21:28.219Z,956.36
2018-09-18T09:22:28.219Z,956.38
2018-09-18T09:23:28.224Z,956.43
2018-09-18T09:24:28.225Z,956.4
2018-09-18T09:25:28.223Z,956.37
2018-09-18T09:26:28.335Z,956.34
2018-09-18T09:27:28.333Z,956.42
2018-09-18T09:28:28.228Z,956.41
2018-09-18T09:29:28.225Z,956.38
2018-09-18T09:30:28.245Z,956.39
2018-09-18T09:31:28.226Z,956.41
2018-09-18T09:32:28.257Z,956.39
2018-09-18T09:33:28.231Z,956.44
2018-09-18T09:34:28.249Z,956.39
2018-09-18T09:35:28.251Z,956.39
2018-09-18T09:36:28.236Z,956.45
2018-09-18T09:37:28.236Z,956.43
2018-09-18T09:38:28.231Z,956.37
2018-09-18T09:39:28.233Z,956.45
2018-09-18T09:40:28.233Z,956.4
2018-09-18T09:41:28.234Z,956.39
2018-09-18T09:42:28.239Z,956.38
2018-09-18T09:43:28.236Z,956.39
2018-09-18T09:44:28.241Z,956.37
2018-09-18T09:45:28.239Z,956.35
2018-09-18T09:46:28.239Z,956.37
2018-09-18T09:47:28.252Z,956.34
2018-09-18T09:48:28.242Z,956.37
2018-09-18T09:49:28.278Z,956.33
2018-09-18T09:50:28.243Z,956.29
2018-09-18T09:51:28.308Z,956.35
2018-09-18T09:52:28.247Z,956.35
2018-09-18T09:53:28.256Z,956.32
2018-09-18T09:54:28.248Z,956.31
2018-09-18T09:55:28.248Z,956.3
2018-09-18T09:56:28.250Z,956.31
2018-09-18T09:57:28.249Z,956.34
2018-09-18T09:58:28.253Z,956.34
2018-09-18T09:59:28.254Z,956.31
2018-09-18T10:00:28.256Z,956.26
2018-09-18T10:01:28.255Z,956.27
2018-09-18T10:02:28.258Z,956.25
2018-09-18T10:03:28.258Z,956.28
2018-09-18T10:04:28.262Z,956.29
2018-09-18T10:05:28.263Z,956.27
2018-09-18T10:06:28.264Z,956.24
2018-09-18T10:07:28.263Z,956.26
2018-09-18T10:08:28.265Z,956.28
2018-09-18T10:09:28.266Z,956.25
2018-09-18T10:10:28.283Z,956.31
2018-09-18T10:11:28.270Z,956.28
2018-09-18T10:12:28.272Z,956.28
2018-09-18T10:13:28.273Z,956.25
2018-09-18T10:14:28.279Z,956.18
2018-09-18T10:15:28.276Z,956.23
2018-09-18T10:16:28.287Z,956.23
2018-09-18T10:17:28.278Z,956.16
2018-09-18T10:18:28.279Z,956.17
2018-09-18T10:19:28.282Z,956.17
2018-09-18T10:20:28.314Z,956.19
2018-09-18T10:21:28.286Z,956.17
2018-09-18T10:22:28.286Z,956.19
2018-09-18T10:23:28.324Z,956.17
2018-09-18T10:24:28.321Z,956.23
2018-09-18T10:25:28.324Z,956.11
2018-09-18T10:26:28.417Z,956.11
2018-09-18T10:27:28.296Z,956.09
2018-09-18T10:28:28.300Z,956.07
2018-09-18T10:29:28.322Z,956.04
2018-09-18T10:30:28.308Z,956.05
2018-09-18T10:31:28.316Z,956.03
2018-09-18T10:32:28.307Z,956
2018-09-18T10:33:28.305Z,956.03
2018-09-18T10:34:28.305Z,955.97
2018-09-18T10:35:28.309Z,955.93
2018-09-18T10:36:28.311Z,955.99
2018-09-18T10:37:28.312Z,955.98
2018-09-18T10:38:28.323Z,955.96
2018-09-18T10:39:28.324Z,955.95
2018-09-18T10:40:28.338Z,955.96
2018-09-18T10:41:28.439Z,955.96
2018-09-18T10:42:28.321Z,955.99
2018-09-18T10:43:28.369Z,955.95
2018-09-18T10:44:28.329Z,955.9
2018-09-18T10:45:28.326Z,955.9
2018-09-18T10:46:28.329Z,955.89
2018-09-18T10:47:28.361Z,955.87
2018-09-18T10:48:28.332Z,955.88
2018-09-18T10:49:28.353Z,955.83
2018-09-18T10:50:28.337Z,955.89
2018-09-18T10:51:28.338Z,955.88
2018-09-18T10:52:28.351Z,955.85
2018-09-18T10:53:28.344Z,955.88
2018-09-18T10:54:28.344Z,955.81
2018-09-18T10:55:28.405Z,955.83
2018-09-18T10:56:28.348Z,955.81
2018-09-18T10:57:28.350Z,955.8
2018-09-18T10:58:28.352Z,955.79
2018-09-18T10:59:28.356Z,955.75
2018-09-18T11:00:28.363Z,955.75
2018-09-18T11:01:28.359Z,955.73
2018-09-18T11:02:28.384Z,955.67
2018-09-18T11:03:28.363Z,955.72
2018-09-18T11:04:28.385Z,955.69
2018-09-18T11:05:28.369Z,955.67
2018-09-18T11:06:28.393Z,955.66
2018-09-18T11:07:28.383Z,955.7
2018-09-18T11:08:28.460Z,955.69
2018-09-18T11:09:28.444Z,955.68
2018-09-18T11:10:28.468Z,955.66
2018-09-18T11:11:28.379Z,955.71
2018-09-18T11:12:28.381Z,955.72
2018-09-18T11:13:28.474Z,955.73
2018-09-18T11:14:28.385Z,955.67
2018-09-18T11:15:28.498Z,955.63
2018-09-18T11:16:28.421Z,955.66
2018-09-18T11:17:28.418Z,955.68
2018-09-18T11:18:28.395Z,955.63
2018-09-18T11:19:28.422Z,955.61
2018-09-18T11:20:28.479Z,955.58
2018-09-18T11:21:28.404Z,955.57
2018-09-18T11:22:28.602Z,955.57
2018-09-18T11:23:28.438Z,955.6
2018-09-18T11:24:28.410Z,955.59
2018-09-18T11:25:28.413Z,955.63
2018-09-18T11:26:28.425Z,955.6
2018-09-18T11:27:28.438Z,955.59
2018-09-18T11:28:28.420Z,955.63
2018-09-18T11:29:28.420Z,955.63
2018-09-18T11:30:28.443Z,955.67
2018-09-18T11:31:28.466Z,955.61
2018-09-18T11:32:28.433Z,955.6
2018-09-18T11:33:28.449Z,955.58
2018-09-18T11:34:28.458Z,955.53
2018-09-18T11:35:28.436Z,955.5
2018-09-18T11:36:28.437Z,955.51
2018-09-18T11:37:28.439Z,955.52
2018-09-18T11:38:28.442Z,955.52
2018-09-18T11:39:28.447Z,955.53
2018-09-18T11:40:28.447Z,955.53
2018-09-18T11:41:28.451Z,955.53
2018-09-18T11:42:28.453Z,955.52
2018-09-18T11:43:28.455Z,955.47
2018-09-18T11:44:28.458Z,955.56
2018-09-18T11:45:28.548Z,955.55
2018-09-18T11:46:28.487Z,955.5
2018-09-18T11:47:28.465Z,955.51
2018-09-18T11:48:28.469Z,955.49
2018-09-18T11:49:28.470Z,955.47
2018-09-18T11:50:28.474Z,955.52
2018-09-18T11:51:28.639Z,955.51
2018-09-18T11:52:28.478Z,955.5
2018-09-18T11:53:28.490Z,955.49
2018-09-18T11:54:28.482Z,955.44
2018-09-18T11:55:28.483Z,955.44
2018-09-18T11:56:28.487Z,955.39
2018-09-18T11:57:28.489Z,955.39
2018-09-18T11:58:28.575Z,955.33
2018-09-18T11:59:28.495Z,955.34
2018-09-18T12:00:28.498Z,955.32
2018-09-18T12:01:28.500Z,955.35
2018-09-18T12:02:28.501Z,955.33
2018-09-18T12:03:28.504Z,955.36
2018-09-18T12:04:28.552Z,955.36
2018-09-18T12:05:28.509Z,955.36
2018-09-18T12:06:28.514Z,955.37
2018-09-18T12:07:28.516Z,955.34
2018-09-18T12:08:28.517Z,955.35
2018-09-18T12:09:28.517Z,955.28
2018-09-18T12:10:28.519Z,955.31
2018-09-18T12:11:28.608Z,955.33
2018-09-18T12:12:28.525Z,955.3
2018-09-18T12:13:28.528Z,955.3
2018-09-18T12:14:28.531Z,955.27
2018-09-18T12:15:28.531Z,955.28
2018-09-18T12:16:28.535Z,955.3
2018-09-18T12:17:28.538Z,955.31
2018-09-18T12:18:28.539Z,955.27
2018-09-18T12:19:28.547Z,955.28
2018-09-18T12:20:28.543Z,955.32
2018-09-18T12:21:28.546Z,955.29
2018-09-18T12:22:28.648Z,955.28
2018-09-18T12:23:28.553Z,955.31
2018-09-18T12:24:28.554Z,955.32
2018-09-18T12:25:28.556Z,955.32
2018-09-18T12:26:28.558Z,955.35
2018-09-18T12:27:28.560Z,955.33
2018-09-18T12:28:28.586Z,955.27
2018-09-18T12:29:28.566Z,955.26
2018-09-18T12:30:28.569Z,955.22
2018-09-18T12:31:28.569Z,955.25